Terminal Aerodrome Forecast
Issued by NWS

Current Version | Previous Version | Text Only | Print | Product List | Glossary On
Versions: 1 2 3 4 5 6 7 8 9 10 11 12 13 14 15 16 17 18 19
000
FTUS46 KMTR 231120
TAFMRY
TAF
KMRY 231120Z 2312/2412 00000KT 3SM BR OVC002
     FM231500 VRB02KT 5SM BR BKN004
     FM231830 30006KT P6SM SKC
     FM232100 27009KT P6SM SKC
     FM240200 25008KT P6SM SCT008
     FM240400 25006KT P6SM BKN006
     FM240600 VRB03KT P6SM OVC004
     FM241000 VRB02KT 5SM BR OVC002=

USA.gov is the U.S. government's official web portal to all federal, state and local government web resources and services.